createdAt,value
2023-05-01T00:01:40.118Z,100824.00
2023-05-01T00:11:40.206Z,100813.00
2023-05-01T00:21:40.109Z,100807.00
2023-05-01T00:31:41.855Z,100792.00
2023-05-01T00:41:42.180Z,100788.00
2023-05-01T00:51:42.238Z,100782.00
2023-05-01T01:01:42.173Z,100773.00
2023-05-01T01:11:42.232Z,100761.00
2023-05-01T01:21:42.177Z,100753.00
2023-05-01T01:31:42.345Z,100743.00
2023-05-01T01:41:42.262Z,100737.00
2023-05-01T01:51:42.387Z,100730.00
2023-05-01T02:01:42.351Z,100726.00
2023-05-01T02:11:42.268Z,100710.00
2023-05-01T02:21:42.272Z,100702.00
2023-05-01T02:31:42.520Z,100696.00
2023-05-01T02:41:42.387Z,100686.00
2023-05-01T02:51:42.517Z,100671.00
2023-05-01T03:01:42.467Z,100663.00
2023-05-01T03:11:43.378Z,100651.00
2023-05-01T03:21:43.343Z,100641.00
2023-05-01T03:31:43.865Z,100632.00
2023-05-01T03:41:49.460Z,100622.00
2023-05-01T03:51:49.508Z,100616.00
2023-05-01T04:01:49.695Z,100612.00
2023-05-01T04:11:50.248Z,100606.00
2023-05-01T04:21:50.653Z,100602.00
2023-05-01T04:31:50.749Z,100596.00
2023-05-01T04:41:50.558Z,100596.00
2023-05-01T04:51:51.562Z,100598.00
2023-05-01T05:01:51.791Z,100596.00
2023-05-01T05:11:53.389Z,100600.00
2023-05-01T05:21:53.676Z,100604.00
2023-05-01T05:31:53.548Z,100600.00
2023-05-01T05:41:54.491Z,100602.00
2023-05-01T05:51:54.912Z,100602.00
2023-05-01T06:01:55.660Z,100596.00
2023-05-01T06:11:55.964Z,100594.00
2023-05-01T06:21:56.659Z,100596.00
2023-05-01T06:31:56.729Z,100589.00
2023-05-01T06:41:58.595Z,100590.00
2023-05-01T06:51:58.915Z,100590.00
2023-05-01T07:01:58.694Z,100592.00
2023-05-01T07:11:58.718Z,100590.00
2023-05-01T07:21:58.720Z,100583.00
2023-05-01T07:31:58.793Z,100579.00
2023-05-01T07:41:58.760Z,100581.00
2023-05-01T07:51:58.939Z,100577.00
2023-05-01T08:01:58.814Z,100571.00
2023-05-01T08:11:58.739Z,100565.00
2023-05-01T08:21:58.883Z,100563.00
2023-05-01T08:31:58.902Z,100551.00
2023-05-01T08:41:58.843Z,100545.00
2023-05-01T08:51:58.870Z,100533.00
2023-05-01T09:02:02.181Z,100531.00
2023-05-01T09:12:02.853Z,100529.00
2023-05-01T09:22:02.904Z,100525.00
2023-05-01T09:32:03.393Z,100535.00
2023-05-01T09:42:03.947Z,100531.00
2023-05-01T09:52:04.877Z,100521.00
2023-05-01T10:02:05.021Z,100515.00
2023-05-01T10:12:10.831Z,100504.00
2023-05-01T10:22:11.044Z,100492.00
2023-05-01T10:32:11.095Z,100490.00
2023-05-01T10:42:12.900Z,100482.00
2023-05-01T10:52:13.846Z,100470.00
2023-05-01T11:02:14.168Z,100457.00
2023-05-01T11:12:14.014Z,100451.00
2023-05-01T11:22:14.137Z,100445.00
2023-05-01T11:32:14.168Z,100445.00
2023-05-01T11:42:14.153Z,100439.00
2023-05-01T11:52:14.181Z,100435.00
2023-05-01T12:02:14.250Z,100431.00
2023-05-01T12:12:14.132Z,100427.00
2023-05-01T12:22:14.652Z,100425.00
2023-05-01T12:32:15.418Z,100417.00
2023-05-01T12:42:20.931Z,100411.00
2023-05-01T12:52:21.272Z,100406.00
2023-05-01T13:02:21.405Z,100402.00
2023-05-01T13:12:22.391Z,100396.00
2023-05-01T13:22:21.694Z,100398.00
2023-05-01T13:32:25.394Z,100400.00
2023-05-01T13:42:25.322Z,100404.00
2023-05-01T13:52:25.800Z,100406.00
2023-05-01T14:02:26.624Z,100411.00
2023-05-01T14:12:27.630Z,100421.00
2023-05-01T14:22:27.747Z,100423.00
2023-05-01T14:32:29.532Z,100425.00
2023-05-01T14:42:30.962Z,100435.00
2023-05-01T14:52:31.436Z,100455.00
2023-05-01T15:02:31.450Z,100480.00
2023-05-01T15:12:31.447Z,100507.00
2023-05-01T15:22:31.618Z,100523.00
2023-05-01T15:32:31.576Z,100547.00
2023-05-01T15:42:31.464Z,100559.00
2023-05-01T15:52:31.561Z,100573.00
2023-05-01T16:02:32.003Z,100581.00
2023-05-01T16:12:32.661Z,100583.00
2023-05-01T16:22:32.486Z,100587.00
2023-05-01T16:32:32.539Z,100590.00
2023-05-01T16:42:32.942Z,100594.00
2023-05-01T16:52:33.656Z,100596.00
2023-05-01T17:02:33.856Z,100598.00
2023-05-01T17:12:34.615Z,100592.00
2023-05-01T17:22:34.617Z,100596.00
2023-05-01T17:32:37.357Z,100602.00
2023-05-01T17:42:36.975Z,100614.00
2023-05-01T17:52:36.609Z,100620.00
2023-05-01T18:02:36.877Z,100624.00
2023-05-01T18:12:37.691Z,100636.00
2023-05-01T18:22:37.741Z,100645.00
2023-05-01T18:32:47.464Z,100655.00
2023-05-01T18:42:40.196Z,100665.00
2023-05-01T18:52:41.957Z,100671.00
2023-05-01T19:02:41.785Z,100683.00
2023-05-01T19:12:41.837Z,100696.00
2023-05-01T19:22:41.752Z,100706.00
2023-05-01T19:32:41.951Z,100722.00
2023-05-01T19:42:41.758Z,100731.00
2023-05-01T19:52:41.762Z,100745.00
2023-05-01T20:02:41.946Z,100755.00
2023-05-01T20:12:42.862Z,100765.00
2023-05-01T20:22:42.876Z,100773.00
2023-05-01T20:32:43.836Z,100778.00
2023-05-01T20:42:43.947Z,100780.00
2023-05-01T20:52:44.093Z,100786.00
2023-05-01T21:02:44.102Z,100803.00
2023-05-01T21:12:44.917Z,100807.00
2023-05-01T21:22:45.803Z,100813.00
2023-05-01T21:32:46.627Z,100824.00
2023-05-01T21:42:46.911Z,100834.00
2023-05-01T21:52:46.907Z,100844.00
2023-05-01T22:02:47.586Z,100858.00
2023-05-01T22:12:48.861Z,100865.00
2023-05-01T22:22:49.135Z,100867.00
2023-05-01T22:32:49.108Z,100877.00
2023-05-01T22:42:49.229Z,100889.00
2023-05-01T22:52:49.047Z,100911.00
2023-05-01T23:02:49.133Z,100917.00
2023-05-01T23:12:49.141Z,100930.00
2023-05-01T23:22:49.036Z,100940.00
2023-05-01T23:32:49.244Z,100948.00
2023-05-01T23:42:50.060Z,100946.00
2023-05-01T23:52:50.046Z,100954.00
